Time;durP1;ratioP1;P1;durP2;ratioP2;P2;SDS_P1;SDS_P2;PMS_P1;PMS_P2;Temp;Humidity;BMP_temperature;BMP_pressure;BME280_temperature;BME280_humidity;BME280_pressure;Samples;Min_cycle;Max_cycle;Signal;HPM_P1;HPM_P2
2021/04/13 00:02:18;;;;;;;4.83;1.50;;;2.80;99.90;;;;;;5022298;28;20313;-56
2021/04/13 00:04:45;;;;;;;2.67;1.27;;;2.80;99.90;;;;;;5013153;28;20199;-52
2021/04/13 00:07:12;;;;;;;2.93;1.00;;;2.80;99.90;;;;;;5022879;28;20200;-58
2021/04/13 00:09:40;;;;;;;3.03;1.17;;;2.70;99.90;;;;;;5019889;28;20450;-55
2021/04/13 00:12:09;;;;;;;2.83;1.10;;;2.70;99.90;;;;;;5022031;28;20554;-58
2021/04/13 00:14:39;;;;;;;4.13;1.60;;;2.70;99.90;;;;;;5014359;28;20214;-54
2021/04/13 00:17:10;;;;;;;1.13;0.80;;;2.70;99.90;;;;;;5022094;28;20437;-53
2021/04/13 00:19:43;;;;;;;3.47;1.17;;;2.70;99.90;;;;;;5019277;28;20510;-54
2021/04/13 00:22:10;;;;;;;3.53;1.40;;;2.70;99.90;;;;;;5013109;28;20557;-56
2021/04/13 00:24:37;;;;;;;1.30;1.20;;;2.70;99.90;;;;;;5019657;28;20511;-52
2021/04/13 00:27:03;;;;;;;5.20;1.17;;;2.70;99.90;;;;;;5022350;28;20279;-50
2021/04/13 00:29:31;;;;;;;2.00;1.27;;;2.70;99.90;;;;;;5007939;28;20443;-50
2021/04/13 00:32:00;;;;;;;3.07;1.20;;;2.70;99.90;;;;;;5022153;28;20232;-52
2021/04/13 00:34:32;;;;;;;1.20;1.03;;;2.70;99.90;;;;;;5020145;28;20344;-52
2021/04/13 00:37:13;;;;;;;4.07;1.60;;;2.70;99.90;;;;;;5011209;28;20209;-52
2021/04/13 00:39:39;;;;;;;1.40;0.83;;;2.70;99.90;;;;;;5025626;28;20230;-52
2021/04/13 00:42:09;;;;;;;6.50;1.40;;;2.60;99.90;;;;;;5025926;28;20688;-55
2021/04/13 00:44:42;;;;;;;4.83;1.30;;;2.60;99.90;;;;;;5013133;28;21754;-57
2021/04/13 00:47:13;;;;;;;1.90;1.30;;;2.60;99.90;;;;;;5025290;28;20362;-57
2021/04/13 00:49:46;;;;;;;3.97;1.30;;;2.60;99.90;;;;;;5023670;28;20628;-53
2021/04/13 00:52:18;;;;;;;1.30;1.20;;;2.60;99.90;;;;;;5019212;28;20195;-59
2021/04/13 00:54:48;;;;;;;3.33;1.50;;;2.60;99.90;;;;;;5033672;28;20223;-53
2021/04/13 00:57:17;;;;;;;3.20;2.13;;;2.60;99.90;;;;;;5025065;28;20217;-57
2021/04/13 00:59:46;;;;;;;5.23;2.07;;;2.60;99.90;;;;;;5024255;28;20786;-53
2021/04/13 01:02:14;;;;;;;3.57;1.50;;;2.60;99.90;;;;;;5013817;28;20251;-56
2021/04/13 01:04:47;;;;;;;5.17;1.73;;;2.60;99.90;;;;;;5023553;28;20408;-57
2021/04/13 01:07:19;;;;;;;4.07;1.37;;;2.50;99.90;;;;;;5021370;28;20672;-55
2021/04/13 01:09:47;;;;;;;4.43;1.50;;;2.50;99.90;;;;;;5020675;28;20235;-56
2021/04/13 01:12:21;;;;;;;2.00;1.13;;;2.50;99.90;;;;;;5024658;28;20203;-56
2021/04/13 01:14:48;;;;;;;4.07;1.57;;;2.50;99.90;;;;;;5025157;28;20203;-58
2021/04/13 01:17:15;;;;;;;2.63;1.37;;;2.50;99.90;;;;;;5018456;28;20211;-55
2021/04/13 01:19:50;;;;;;;1.30;1.20;;;2.50;99.90;;;;;;5023084;28;20418;-58
2021/04/13 01:22:25;;;;;;;2.93;1.47;;;2.40;99.90;;;;;;5019209;28;20684;-53
2021/04/13 01:24:52;;;;;;;1.90;1.40;;;2.40;99.90;;;;;;5021810;28;20213;-57
2021/04/13 01:27:21;;;;;;;2.03;1.27;;;2.40;99.90;;;;;;5022459;28;20211;-55
2021/04/13 01:29:50;;;;;;;3.00;1.67;;;2.40;99.90;;;;;;5024621;28;20235;-54
2021/04/13 01:32:17;;;;;;;3.23;1.30;;;2.40;99.90;;;;;;5016625;28;20528;-56
2021/04/13 01:35:00;;;;;;;2.13;1.23;;;2.40;99.90;;;;;;5024186;28;20394;-58
2021/04/13 01:37:42;;;;;;;3.67;1.80;;;2.40;99.90;;;;;;5021425;28;20417;-56
2021/04/13 01:40:18;;;;;;;2.07;1.47;;;2.30;99.90;;;;;;5021406;28;20222;-57
2021/04/13 01:42:47;;;;;;;4.17;1.57;;;2.30;99.90;;;;;;5024345;28;20214;-52
2021/04/13 01:45:16;;;;;;;3.97;1.60;;;2.30;99.90;;;;;;5022698;28;20636;-55
2021/04/13 01:47:45;;;;;;;2.20;1.30;;;2.30;99.90;;;;;;5015651;28;21051;-55
2021/04/13 01:50:17;;;;;;;4.30;1.90;;;2.30;99.90;;;;;;5027013;28;20227;-57
2021/04/13 01:52:47;;;;;;;4.90;1.70;;;2.30;99.90;;;;;;5023685;28;20827;-55
2021/04/13 01:55:17;;;;;;;2.33;1.73;;;2.30;99.90;;;;;;5014890;28;20562;-56
2021/04/13 01:57:52;;;;;;;4.00;1.57;;;2.30;99.90;;;;;;5025882;28;20227;-52
2021/04/13 02:00:25;;;;;;;1.97;1.70;;;2.20;99.90;;;;;;5022665;28;20812;-56
2021/04/13 02:02:56;;;;;;;4.20;1.63;;;2.20;99.90;;;;;;5024652;28;20231;-57
2021/04/13 02:05:26;;;;;;;2.20;2.00;;;2.20;99.90;;;;;;5009592;28;20242;-54
2021/04/13 02:08:02;;;;;;;3.10;2.10;;;2.20;99.90;;;;;;5018544;28;20680;-49
2021/04/13 02:10:35;;;;;;;5.67;2.23;;;2.20;99.90;;;;;;5006822;28;20523;-56
2021/04/13 02:13:07;;;;;;;2.80;2.00;;;2.20;99.90;;;;;;5031943;28;20222;-53
2021/04/13 02:15:57;;;;;;;6.77;2.20;;;2.10;99.90;;;;;;5021345;28;20439;-57
2021/04/13 02:18:30;;;;;;;3.00;2.23;;;2.10;99.90;;;;;;5000812;28;20214;-56
2021/04/13 02:20:57;;;;;;;2.80;2.20;;;2.10;99.90;;;;;;5024162;28;20231;-56
2021/04/13 02:23:31;;;;;;;3.00;2.37;;;2.10;99.90;;;;;;5020082;28;20251;-55
2021/04/13 02:25:59;;;;;;;1.90;1.63;;;2.10;99.90;;;;;;5024525;28;20203;-57
2021/04/13 02:28:26;;;;;;;6.10;2.47;;;2.10;99.90;;;;;;5014290;28;20300;-55
2021/04/13 02:30:54;;;;;;;4.97;2.20;;;2.10;99.90;;;;;;5029680;28;20299;-54
2021/04/13 02:33:31;;;;;;;5.03;2.53;;;2.10;99.90;;;;;;5020337;28;20211;-58
2021/04/13 02:35:58;;;;;;;3.63;1.50;;;2.10;99.90;;;;;;5017802;28;20214;-52
2021/04/13 02:38:29;;;;;;;2.33;2.00;;;2.10;99.90;;;;;;5019743;28;20288;-59
2021/04/13 02:41:11;;;;;;;4.10;2.00;;;2.10;99.90;;;;;;5023903;28;20806;-54
2021/04/13 02:43:42;;;;;;;2.77;2.30;;;2.10;99.90;;;;;;5013404;28;20254;-52
2021/04/13 02:46:11;;;;;;;3.50;2.03;;;2.10;99.90;;;;;;5025396;28;20718;-55
2021/04/13 02:48:41;;;;;;;6.03;2.43;;;2.10;99.90;;;;;;5021682;28;20207;-53
2021/04/13 02:51:10;;;;;;;3.60;1.93;;;2.10;99.90;;;;;;5013090;28;20203;-57
2021/04/13 02:53:42;;;;;;;3.77;1.70;;;2.10;99.90;;;;;;5021318;28;20237;-51
2021/04/13 02:56:13;;;;;;;2.70;2.13;;;2.10;99.90;;;;;;5022709;28;20203;-58
2021/04/13 02:58:52;;;;;;;4.67;2.00;;;2.10;99.90;;;;;;5013300;28;20447;-56
2021/04/13 03:01:22;;;;;;;3.70;2.00;;;2.10;99.90;;;;;;5020335;28;20202;-57
2021/04/13 03:03:50;;;;;;;4.43;2.93;;;2.10;99.90;;;;;;5024590;28;20225;-51
2021/04/13 03:06:18;;;;;;;6.33;2.27;;;2.10;99.90;;;;;;5011081;28;20570;-54
2021/04/13 03:08:45;;;;;;;3.27;2.20;;;2.10;99.90;;;;;;5022266;28;20868;-53
2021/04/13 03:11:16;;;;;;;6.60;2.17;;;2.10;99.90;;;;;;5022020;28;20217;-54
2021/04/13 03:13:44;;;;;;;3.63;2.10;;;2.10;99.90;;;;;;4996829;28;23709;-57
2021/04/13 03:16:13;;;;;;;2.13;1.87;;;2.00;99.90;;;;;;5011652;28;20683;-55
2021/04/13 03:18:42;;;;;;;4.67;2.10;;;2.00;99.90;;;;;;5020093;28;20211;-59
2021/04/13 03:21:12;;;;;;;4.27;2.57;;;2.00;99.90;;;;;;5013420;28;20207;-55
2021/04/13 03:23:40;;;;;;;14.40;2.70;;;2.00;99.90;;;;;;5023381;28;20230;-58
2021/04/13 03:26:10;;;;;;;7.87;2.40;;;2.00;99.90;;;;;;5020399;28;20751;-56
2021/04/13 03:28:41;;;;;;;7.97;2.53;;;2.00;99.90;;;;;;5020656;28;20225;-57
2021/04/13 03:31:09;;;;;;;1.90;1.80;;;2.10;99.90;;;;;;5019403;28;20417;-56
2021/04/13 03:33:37;;;;;;;4.37;2.40;;;2.10;99.90;;;;;;5023428;28;20198;-57
2021/04/13 03:36:08;;;;;;;6.67;2.70;;;2.10;99.90;;;;;;5021648;28;20580;-57
2021/04/13 03:38:37;;;;;;;3.87;2.27;;;2.10;99.90;;;;;;5014635;28;20234;-55
2021/04/13 03:41:04;;;;;;;3.03;2.50;;;2.10;99.90;;;;;;5020592;28;20432;-54
2021/04/13 03:43:32;;;;;;;5.83;2.57;;;2.10;99.90;;;;;;5004949;28;20230;-53
2021/04/13 03:46:03;;;;;;;7.23;2.47;;;2.10;99.90;;;;;;5016080;28;20290;-56
2021/04/13 03:48:32;;;;;;;2.80;2.40;;;2.10;99.90;;;;;;5027386;28;20610;-53
2021/04/13 03:51:01;;;;;;;6.23;2.47;;;2.00;99.90;;;;;;5019310;28;20353;-58
2021/04/13 03:53:35;;;;;;;10.03;3.67;;;2.00;99.90;;;;;;5012854;28;20206;-56
2021/04/13 03:56:06;;;;;;;11.43;3.03;;;2.00;99.90;;;;;;5014379;28;20206;-54
2021/04/13 03:58:38;;;;;;;8.73;3.13;;;2.00;99.90;;;;;;5022309;28;20693;-58
2021/04/13 04:01:07;;;;;;;10.00;3.73;;;2.00;99.90;;;;;;5010135;28;20407;-56
2021/04/13 04:03:35;;;;;;;6.60;3.23;;;2.00;99.90;;;;;;5021292;28;20710;-57
2021/04/13 04:06:02;;;;;;;4.97;2.70;;;2.00;99.90;;;;;;5027389;28;20452;-53
2021/04/13 04:08:37;;;;;;;6.67;3.30;;;2.00;99.90;;;;;;5007673;28;20642;-54
2021/04/13 04:11:05;;;;;;;4.90;2.60;;;2.00;99.90;;;;;;5019174;28;20227;-56
2021/04/13 04:13:35;;;;;;;4.00;2.70;;;1.90;99.90;;;;;;5022076;28;20208;-54
2021/04/13 04:16:11;;;;;;;10.30;3.93;;;1.90;99.90;;;;;;5019779;28;20404;-56
2021/04/13 04:18:41;;;;;;;7.27;4.33;;;1.90;99.90;;;;;;5018420;28;20202;-54
2021/04/13 04:21:32;;;;;;;13.30;4.07;;;1.90;99.90;;;;;;5020609;28;20203;-54
2021/04/13 04:24:03;;;;;;;6.67;3.57;;;1.90;99.90;;;;;;4984301;28;20595;-55
2021/04/13 04:26:33;;;;;;;7.83;4.27;;;1.90;99.90;;;;;;5022613;28;20213;-53
2021/04/13 04:29:15;;;;;;;6.90;3.30;;;1.90;99.90;;;;;;5018628;28;20241;-56
2021/04/13 04:31:43;;;;;;;10.10;3.60;;;1.90;99.90;;;;;;5016303;28;20202;-57
2021/04/13 04:34:38;;;;;;;4.57;2.87;;;1.90;99.90;;;;;;5021062;28;20448;-56
2021/04/13 04:37:27;;;;;;;5.97;3.70;;;1.90;99.90;;;;;;5020188;28;20838;-52
2021/04/13 04:40:27;;;;;;;12.97;4.30;;;2.00;99.90;;;;;;5002666;28;21104;-55
2021/04/13 04:42:55;;;;;;;6.67;3.60;;;2.00;99.90;;;;;;5010254;28;20334;-57
2021/04/13 04:45:38;;;;;;;8.00;3.23;;;2.10;99.90;;;;;;5022133;28;20557;-56
2021/04/13 04:48:29;;;;;;;11.63;3.87;;;2.10;99.90;;;;;;5009256;28;20328;-53
2021/04/13 04:50:57;;;;;;;35.10;8.83;;;2.10;99.90;;;;;;5011574;28;20218;-56
2021/04/13 04:53:24;;;;;;;6.47;2.80;;;2.20;99.90;;;;;;5010777;28;20202;-59
2021/04/13 04:55:52;;;;;;;6.97;3.23;;;2.20;99.90;;;;;;5006404;28;20287;-52
2021/04/13 04:58:18;;;;;;;4.33;3.17;;;2.30;99.90;;;;;;5014584;28;20568;-58
2021/04/13 05:00:46;;;;;;;6.90;2.70;;;2.30;99.90;;;;;;5019626;28;20217;-50
2021/04/13 05:03:12;;;;;;;7.40;3.43;;;2.40;99.90;;;;;;5020884;28;20219;-56
2021/04/13 05:05:38;;;;;;;3.43;2.70;;;2.40;99.90;;;;;;5014002;28;20219;-53
2021/04/13 05:08:05;;;;;;;8.40;3.17;;;2.30;99.90;;;;;;5017095;28;20240;-52
2021/04/13 05:10:31;;;;;;;7.87;3.87;;;2.30;99.90;;;;;;5003739;28;20845;-53
2021/04/13 05:12:57;;;;;;;10.37;3.97;;;2.30;99.90;;;;;;5016670;28;20209;-54
2021/04/13 05:15:23;;;;;;;10.47;3.27;;;2.20;99.90;;;;;;5011617;28;20202;-51
2021/04/13 05:17:50;;;;;;;17.50;4.73;;;2.20;99.90;;;;;;5020032;28;20601;-54
2021/04/13 05:20:17;;;;;;;13.33;5.63;;;2.10;99.90;;;;;;5011825;28;20559;-56
2021/04/13 05:22:44;;;;;;;19.13;5.93;;;2.10;99.90;;;;;;5011804;28;20596;-52
2021/04/13 05:25:12;;;;;;;14.40;5.67;;;2.10;99.90;;;;;;5022359;28;20198;-56
2021/04/13 05:27:38;;;;;;;9.43;5.10;;;2.10;99.90;;;;;;5009283;28;20214;-55
2021/04/13 05:30:06;;;;;;;6.10;3.43;;;2.20;99.90;;;;;;5024942;28;20940;-54
2021/04/13 05:32:32;;;;;;;11.90;4.53;;;2.30;99.90;;;;;;5019344;28;20191;-55
2021/04/13 05:34:59;;;;;;;13.33;4.43;;;2.30;99.90;;;;;;5016420;28;20203;-55
2021/04/13 05:37:28;;;;;;;28.60;8.33;;;2.40;99.90;;;;;;5021595;28;20570;-57
2021/04/13 05:39:54;;;;;;;10.53;4.53;;;2.40;99.90;;;;;;5019280;28;20722;-55
2021/04/13 05:42:25;;;;;;;35.43;7.30;;;2.50;99.90;;;;;;5006770;28;20222;-57
2021/04/13 05:44:53;;;;;;;14.30;4.80;;;2.50;99.90;;;;;;5024008;28;20199;-49
2021/04/13 05:47:19;;;;;;;25.13;6.10;;;2.60;99.90;;;;;;5021366;28;20722;-56
2021/04/13 05:49:45;;;;;;;7.23;3.60;;;2.60;99.90;;;;;;5020831;28;20951;-55
2021/04/13 05:52:12;;;;;;;6.10;3.37;;;2.70;99.90;;;;;;5016291;28;20256;-57
2021/04/13 05:54:38;;;;;;;29.20;5.73;;;2.70;99.90;;;;;;5014124;28;20360;-54
2021/04/13 05:57:05;;;;;;;15.63;4.57;;;2.80;99.90;;;;;;5013729;28;20208;-52
2021/04/13 05:59:32;;;;;;;9.10;2.80;;;2.90;99.90;;;;;;5014453;28;20440;-54
2021/04/13 06:01:59;;;;;;;7.23;2.97;;;3.00;99.90;;;;;;5023441;28;20198;-53
2021/04/13 06:04:25;;;;;;;4.97;2.90;;;3.00;99.90;;;;;;5023381;28;20219;-57
2021/04/13 06:06:51;;;;;;;9.57;3.13;;;3.00;99.90;;;;;;5022540;28;20211;-53
2021/04/13 06:09:18;;;;;;;5.43;2.77;;;3.10;99.90;;;;;;5020642;28;20967;-51
2021/04/13 06:11:44;;;;;;;4.57;2.13;;;3.10;99.90;;;;;;5020867;28;20326;-53
2021/04/13 06:14:11;;;;;;;7.73;3.30;;;3.10;99.90;;;;;;5015186;28;20222;-56
2021/04/13 06:16:38;;;;;;;8.97;3.40;;;3.10;99.90;;;;;;5018932;28;20200;-54
2021/04/13 06:19:05;;;;;;;12.87;3.50;;;3.10;99.90;;;;;;5021499;28;20223;-58
2021/04/13 06:21:32;;;;;;;10.33;2.70;;;3.20;99.90;;;;;;5016790;28;20409;-49
2021/04/13 06:23:58;;;;;;;6.40;2.37;;;3.10;99.90;;;;;;5024523;28;20211;-54
2021/04/13 06:26:25;;;;;;;4.50;2.10;;;3.20;99.90;;;;;;5016882;28;20210;-52
2021/04/13 06:28:51;;;;;;;7.40;2.90;;;3.30;99.90;;;;;;5003767;28;20492;-53
2021/04/13 06:31:17;;;;;;;6.90;2.43;;;3.40;99.90;;;;;;5020007;28;20219;-54
2021/04/13 06:33:43;;;;;;;6.10;2.30;;;3.50;99.90;;;;;;5017063;28;20226;-54
2021/04/13 06:36:13;;;;;;;9.60;2.67;;;3.50;99.90;;;;;;5024759;28;20203;-54
2021/04/13 06:38:40;;;;;;;8.17;2.60;;;3.40;99.90;;;;;;5019945;28;20569;-55
2021/04/13 06:41:27;;;;;;;6.93;2.53;;;3.50;99.90;;;;;;5022898;28;20196;-51
2021/04/13 06:44:44;;;;;;;5.40;2.13;;;3.50;99.90;;;;;;5004876;28;20504;-52
2021/04/13 06:47:18;;;;;;;14.07;2.33;;;3.60;99.90;;;;;;4996041;28;20301;-50
2021/04/13 06:49:57;;;;;;;3.90;2.03;;;3.60;99.90;;;;;;5020238;28;20327;-52
2021/04/13 06:52:33;;;;;;;10.83;2.20;;;3.70;99.90;;;;;;5015006;28;20286;-53
2021/04/13 06:55:11;;;;;;;9.07;2.77;;;3.80;99.90;;;;;;5016733;28;20285;-55
2021/04/13 06:58:01;;;;;;;4.20;2.07;;;3.90;99.90;;;;;;5020008;28;20665;-51
2021/04/13 07:00:51;;;;;;;6.30;2.37;;;4.00;99.90;;;;;;5015386;28;20250;-53
2021/04/13 07:03:25;;;;;;;6.47;2.23;;;4.00;99.90;;;;;;4999780;28;20697;-52
2021/04/13 07:05:59;;;;;;;10.90;2.53;;;4.10;99.90;;;;;;5005602;28;20722;-55
2021/04/13 07:08:33;;;;;;;4.93;1.60;;;4.20;99.90;;;;;;5014766;28;20222;-56
2021/04/13 07:11:03;;;;;;;6.77;1.70;;;4.20;99.90;;;;;;5000282;28;20213;-56
2021/04/13 07:13:34;;;;;;;5.10;1.70;;;4.30;99.90;;;;;;5022346;28;20196;-54
2021/04/13 07:16:06;;;;;;;6.37;1.77;;;4.40;99.90;;;;;;5016560;28;20195;-56
2021/04/13 07:18:39;;;;;;;4.10;2.13;;;4.50;99.90;;;;;;5018517;28;20196;-51
2021/04/13 07:21:13;;;;;;;6.50;2.23;;;4.60;99.90;;;;;;5019776;28;20213;-56
2021/04/13 07:23:43;;;;;;;4.27;1.63;;;4.60;99.90;;;;;;5011241;28;20219;-55
2021/04/13 07:26:14;;;;;;;7.47;1.30;;;4.60;99.90;;;;;;5022608;28;20200;-53
2021/04/13 07:28:51;;;;;;;10.00;1.60;;;4.70;99.90;;;;;;5008928;28;20208;-57
2021/04/13 07:31:23;;;;;;;2.83;1.23;;;4.80;99.90;;;;;;5010808;28;20210;-51
2021/04/13 07:33:50;;;;;;;3.23;1.10;;;4.90;99.90;;;;;;5012678;28;20184;-52
2021/04/13 07:36:21;;;;;;;7.00;1.63;;;5.00;99.90;;;;;;5017383;28;20212;-52
2021/04/13 07:38:50;;;;;;;5.20;1.40;;;5.10;99.90;;;;;;5010927;28;20433;-52
2021/04/13 07:41:23;;;;;;;6.13;1.37;;;5.10;99.90;;;;;;5016950;28;20200;-50
2021/04/13 07:43:55;;;;;;;3.17;1.27;;;5.20;99.90;;;;;;5014778;28;21065;-55
2021/04/13 07:46:45;;;;;;;3.87;1.13;;;5.20;99.90;;;;;;5009225;28;21015;-52
2021/04/13 07:49:15;;;;;;;5.10;1.20;;;5.30;99.90;;;;;;5010262;28;20224;-53
2021/04/13 07:51:52;;;;;;;5.50;1.60;;;5.50;99.90;;;;;;5019126;28;20567;-51
2021/04/13 07:54:40;;;;;;;6.47;1.20;;;5.50;99.90;;;;;;5004140;28;20203;-51
2021/04/13 07:57:12;;;;;;;9.77;1.70;;;5.70;99.90;;;;;;5012393;28;20192;-57
2021/04/13 07:59:47;;;;;;;10.10;2.40;;;5.70;99.90;;;;;;5019128;28;20219;-53
2021/04/13 08:02:13;;;;;;;4.30;1.50;;;5.70;99.90;;;;;;5004454;28;20192;-51
2021/04/13 08:04:45;;;;;;;8.23;1.90;;;5.70;99.90;;;;;;5014833;28;20228;-53
2021/04/13 08:07:14;;;;;;;5.17;1.50;;;5.70;99.90;;;;;;5015618;28;20599;-51
2021/04/13 08:09:42;;;;;;;8.07;1.70;;;5.70;99.90;;;;;;5013865;28;20226;-55
2021/04/13 08:12:22;;;;;;;13.50;2.30;;;5.90;99.90;;;;;;5011597;28;20207;-55
2021/04/13 08:15:03;;;;;;;3.30;1.50;;;6.10;99.90;;;;;;5020050;28;20241;-55
2021/04/13 08:17:33;;;;;;;11.20;1.70;;;6.30;99.90;;;;;;4996479;28;20257;-54
2021/04/13 08:20:03;;;;;;;7.67;1.80;;;6.30;99.90;;;;;;5013741;28;20235;-54
2021/04/13 08:22:47;;;;;;;11.60;3.07;;;6.30;99.90;;;;;;5012847;28;20223;-54
2021/04/13 08:25:30;;;;;;;5.90;2.20;;;6.30;99.90;;;;;;5008729;28;20199;-53
2021/04/13 08:28:05;;;;;;;6.60;1.40;;;6.40;99.90;;;;;;5022072;28;20735;-54
2021/04/13 08:30:44;;;;;;;9.90;2.13;;;6.50;99.90;;;;;;5016036;28;20273;-55
2021/04/13 08:33:23;;;;;;;7.73;2.03;;;6.60;99.90;;;;;;5012862;28;20231;-53
2021/04/13 08:36:09;;;;;;;9.53;1.50;;;6.60;99.90;;;;;;5014994;28;20195;-51
2021/04/13 08:38:53;;;;;;;9.57;2.07;;;6.70;99.90;;;;;;5007596;28;20298;-53
2021/04/13 08:41:31;;;;;;;4.47;1.27;;;6.70;99.90;;;;;;5006768;28;20203;-54
2021/04/13 08:44:10;;;;;;;5.87;1.37;;;6.70;99.90;;;;;;5019007;28;20285;-50
2021/04/13 08:46:48;;;;;;;12.47;1.70;;;6.70;99.90;;;;;;5015460;28;20191;-55
2021/04/13 08:49:31;;;;;;;7.47;1.63;;;6.80;99.90;;;;;;5009054;28;20501;-52
2021/04/13 08:52:16;;;;;;;7.97;1.93;;;6.90;99.90;;;;;;5019111;28;20206;-50
2021/04/13 08:54:46;;;;;;;9.40;1.60;;;7.00;99.90;;;;;;5010980;28;20827;-53
2021/04/13 08:57:32;;;;;;;7.00;1.57;;;7.20;99.90;;;;;;5012148;28;20200;-53
2021/04/13 09:00:01;;;;;;;10.43;2.57;;;7.20;99.90;;;;;;5022891;28;20265;-50
2021/04/13 09:02:29;;;;;;;5.83;1.70;;;7.30;99.90;;;;;;5012399;28;20227;-54
2021/04/13 09:05:09;;;;;;;4.07;1.53;;;7.40;99.90;;;;;;5020572;28;20554;-50
2021/04/13 09:07:52;;;;;;;7.83;1.50;;;7.30;99.90;;;;;;5011880;28;20854;-52
2021/04/13 09:10:31;;;;;;;4.53;1.03;;;6.80;99.90;;;;;;5017331;28;20220;-56
2021/04/13 09:13:15;;;;;;;2.67;0.97;;;6.40;99.90;;;;;;5011938;28;20195;-50
2021/04/13 09:15:55;;;;;;;7.00;1.50;;;6.10;99.90;;;;;;5015491;28;20195;-56
2021/04/13 09:18:28;;;;;;;6.20;1.40;;;6.00;99.90;;;;;;5021383;28;20319;-58
2021/04/13 09:21:03;;;;;;;7.83;1.87;;;6.00;99.90;;;;;;5002369;28;20222;-53
2021/04/13 09:23:35;;;;;;;7.00;2.63;;;6.20;99.90;;;;;;5015216;28;20223;-57
2021/04/13 09:26:10;;;;;;;6.33;2.20;;;6.40;99.90;;;;;;5017717;28;20581;-51
2021/04/13 09:28:52;;;;;;;6.27;1.33;;;6.60;99.90;;;;;;5008106;28;20408;-54
2021/04/13 09:31:22;;;;;;;12.17;1.90;;;6.90;99.90;;;;;;5025802;28;20208;-55
2021/04/13 09:33:49;;;;;;;8.70;1.70;;;7.10;99.90;;;;;;5016344;28;20759;-52
2021/04/13 09:36:37;;;;;;;4.17;1.17;;;7.30;99.90;;;;;;5012645;28;20265;-55
2021/04/13 09:39:24;;;;;;;10.00;1.87;;;7.50;99.90;;;;;;5017799;28;20234;-48
2021/04/13 09:42:07;;;;;;;6.33;1.70;;;7.50;99.90;;;;;;5018058;28;20195;-53
2021/04/13 09:45:00;;;;;;;10.30;1.50;;;7.60;99.90;;;;;;5008609;28;20212;-55
2021/04/13 09:47:47;;;;;;;9.97;1.90;;;7.70;99.90;;;;;;5023732;28;20207;-57
2021/04/13 09:50:24;;;;;;;9.07;2.20;;;7.80;99.90;;;;;;5021797;28;20309;-48
2021/04/13 09:53:08;;;;;;;6.07;1.43;;;7.80;99.90;;;;;;5016793;28;20699;-48
2021/04/13 09:55:50;;;;;;;7.23;1.20;;;7.90;99.90;;;;;;5012941;28;20204;-52
2021/04/13 09:58:57;;;;;;;7.47;1.43;;;7.70;99.90;;;;;;5018738;28;20613;-55
2021/04/13 10:01:39;;;;;;;9.67;1.97;;;7.90;99.90;;;;;;5008992;28;20207;-55
2021/04/13 10:04:32;;;;;;;9.27;1.47;;;7.90;99.90;;;;;;5025915;28;20226;-52
2021/04/13 10:07:19;;;;;;;12.03;1.80;;;8.00;99.90;;;;;;5012391;28;20207;-49
2021/04/13 10:09:46;;;;;;;5.97;1.33;;;8.20;99.90;;;;;;5008881;28;20253;-52
2021/04/13 10:12:58;;;;;;;7.57;1.30;;;8.20;99.90;;;;;;5022948;28;20638;-48
2021/04/13 10:15:52;;;;;;;4.63;1.47;;;8.30;99.90;;;;;;4973333;28;20302;-54
2021/04/13 10:18:56;;;;;;;3.93;0.93;;;8.30;99.40;;;;;;5017967;28;20631;-53
2021/04/13 10:21:58;;;;;;;7.40;1.37;;;8.30;99.40;;;;;;5022124;28;20566;-54
2021/04/13 10:25:06;;;;;;;7.13;1.43;;;8.30;99.90;;;;;;5004505;28;20235;-54
2021/04/13 10:28:03;;;;;;;4.70;1.23;;;8.00;98.00;;;;;;4972402;28;20206;-56
2021/04/13 10:30:57;;;;;;;4.37;1.23;;;7.90;99.90;;;;;;5016161;28;20223;-54
2021/04/13 10:34:02;;;;;;;5.20;0.93;;;8.00;99.40;;;;;;5006500;28;20212;-52
2021/04/13 10:36:55;;;;;;;6.00;1.37;;;8.10;97.20;;;;;;4993339;28;20208;-53
2021/04/13 10:39:42;;;;;;;4.80;1.10;;;8.20;99.50;;;;;;5000721;28;20247;-50
2021/04/13 10:42:51;;;;;;;6.23;1.40;;;8.20;98.50;;;;;;5021190;28;20196;-48
2021/04/13 10:45:41;;;;;;;3.17;1.37;;;8.40;97.00;;;;;;5019734;28;20203;-55
2021/04/13 10:48:54;;;;;;;3.87;1.10;;;8.60;99.90;;;;;;5021273;28;20200;-55
2021/04/13 10:52:05;;;;;;;7.23;1.20;;;8.60;99.90;;;;;;5016299;28;20199;-52
2021/04/13 10:54:51;;;;;;;4.50;1.20;;;8.80;97.60;;;;;;5005753;28;20196;-50
2021/04/13 10:57:28;;;;;;;3.47;0.73;;;8.80;99.80;;;;;;4997911;28;20216;-53
2021/04/13 11:00:18;;;;;;;7.90;1.00;;;8.90;98.60;;;;;;5019303;28;20230;-54
2021/04/13 11:03:12;;;;;;;4.27;0.97;;;9.10;98.40;;;;;;5015196;28;20607;-52
2021/04/13 11:05:58;;;;;;;4.37;1.00;;;9.20;98.30;;;;;;5014564;28;20334;-54
2021/04/13 11:09:02;;;;;;;3.30;1.00;;;9.10;94.50;;;;;;5018276;28;20207;-51
2021/04/13 11:12:05;;;;;;;9.97;1.40;;;9.00;90.20;;;;;;5003183;28;20562;-54
2021/04/13 11:15:03;;;;;;;3.87;0.80;;;9.10;92.40;;;;;;5017750;28;20656;-52
2021/04/13 11:18:00;;;;;;;4.17;1.13;;;9.00;92.30;;;;;;5017919;28;20241;-51
2021/04/13 11:21:19;;;;;;;5.10;0.97;;;8.90;95.30;;;;;;5008336;28;20224;-52
2021/04/13 11:24:33;;;;;;;5.23;1.20;;;9.00;96.70;;;;;;4921619;29;20910;-54
2021/04/13 11:27:40;;;;;;;5.40;1.43;;;9.10;97.00;;;;;;4876895;29;20214;-54
2021/04/13 11:30:46;;;;;;;6.07;1.10;;;9.30;97.20;;;;;;5019037;28;20236;-50
2021/04/13 11:33:55;;;;;;;5.00;1.40;;;9.30;98.10;;;;;;5020968;28;20196;-48
2021/04/13 11:36:37;;;;;;;6.63;1.33;;;9.20;98.10;;;;;;5009654;28;20208;-56
2021/04/13 11:39:16;;;;;;;5.07;1.17;;;9.00;94.90;;;;;;5025791;28;20219;-47
2021/04/13 11:42:02;;;;;;;6.03;1.00;;;8.80;94.30;;;;;;5004071;28;20514;-50
2021/04/13 11:44:35;;;;;;;5.27;1.07;;;8.80;95.90;;;;;;5013077;28;20216;-52
2021/04/13 11:47:12;;;;;;;3.23;0.90;;;9.00;96.80;;;;;;5017033;28;20215;-52
2021/04/13 11:49:46;;;;;;;3.77;1.10;;;9.10;98.10;;;;;;5017625;28;20645;-52
2021/04/13 11:52:19;;;;;;;4.40;0.83;;;9.00;97.40;;;;;;5018072;28;20212;-51
2021/04/13 11:54:49;;;;;;;6.77;1.37;;;9.00;97.00;;;;;;5020678;28;20468;-49
2021/04/13 11:57:18;;;;;;;3.00;1.50;;;8.90;98.10;;;;;;5011003;28;20204;-50
2021/04/13 12:00:28;;;;;;;6.03;1.30;;;8.60;99.90;;;;;;5014028;28;20294;-52
2021/04/13 12:03:04;;;;;;;5.00;1.20;;;8.20;99.90;;;;;;5021644;28;20200;-50
2021/04/13 12:05:45;;;;;;;3.80;1.13;;;8.10;99.90;;;;;;5021307;28;20199;-53
2021/04/13 12:08:40;;;;;;;5.00;1.20;;;8.20;99.90;;;;;;5014427;28;20204;-52
2021/04/13 12:11:07;;;;;;;4.50;0.97;;;8.30;99.90;;;;;;5026373;28;20220;-49
2021/04/13 12:13:40;;;;;;;4.33;0.87;;;8.40;99.90;;;;;;5001498;28;20293;-51
2021/04/13 12:16:07;;;;;;;6.90;0.93;;;8.30;99.90;;;;;;5019562;28;20203;-51
2021/04/13 12:18:47;;;;;;;3.93;1.23;;;8.30;99.90;;;;;;5017592;28;20297;-53
2021/04/13 12:21:52;;;;;;;7.47;1.00;;;8.40;98.60;;;;;;5022463;28;20203;-50
2021/04/13 12:24:52;;;;;;;4.80;1.07;;;8.50;99.90;;;;;;5012960;28;20700;-51
2021/04/13 12:27:56;;;;;;;4.30;1.00;;;8.70;99.90;;;;;;4999341;28;20211;-53
2021/04/13 12:30:53;;;;;;;4.90;1.17;;;8.70;99.90;;;;;;5003456;28;20231;-54
2021/04/13 12:34:06;;;;;;;5.73;1.17;;;8.70;99.90;;;;;;5018919;28;20213;-53
2021/04/13 12:36:47;;;;;;;6.60;1.63;;;8.50;99.90;;;;;;5017042;28;20199;-54
2021/04/13 12:39:48;;;;;;;4.47;1.23;;;8.50;99.90;;;;;;5010253;28;20324;-54
2021/04/13 12:42:54;;;;;;;1.97;0.97;;;8.40;99.90;;;;;;5019007;28;20286;-52
2021/04/13 12:45:40;;;;;;;6.13;1.33;;;8.20;99.90;;;;;;5000749;28;20220;-52
2021/04/13 12:48:16;;;;;;;5.37;1.37;;;8.40;99.90;;;;;;5017720;28;20206;-53
2021/04/13 12:50:44;;;;;;;3.80;1.53;;;8.70;99.90;;;;;;4996602;28;20223;-54
2021/04/13 12:53:13;;;;;;;9.23;1.20;;;8.90;99.90;;;;;;5019802;28;20204;-50
2021/04/13 12:55:40;;;;;;;9.00;1.20;;;9.00;99.70;;;;;;5003141;28;20432;-52
2021/04/13 12:58:13;;;;;;;6.03;1.10;;;9.20;99.90;;;;;;5019203;28;20641;-52
2021/04/13 13:00:44;;;;;;;6.63;0.90;;;9.20;98.70;;;;;;5004213;28;20637;-53
2021/04/13 13:03:20;;;;;;;5.23;0.90;;;9.20;98.30;;;;;;5013828;28;20208;-53
2021/04/13 13:05:47;;;;;;;3.10;0.80;;;9.50;96.80;;;;;;5025934;28;20421;-56
2021/04/13 13:08:18;;;;;;;9.07;1.07;;;9.60;96.10;;;;;;5020340;28;20203;-57
2021/04/13 13:10:47;;;;;;;5.50;1.00;;;9.30;98.40;;;;;;5009185;28;20508;-53
2021/04/13 13:13:18;;;;;;;5.40;0.97;;;9.00;99.50;;;;;;5015048;28;20208;-55
2021/04/13 13:15:46;;;;;;;6.90;1.10;;;9.00;99.90;;;;;;5006407;28;23901;-54
2021/04/13 13:18:19;;;;;;;3.90;0.70;;;9.30;99.90;;;;;;5014694;28;20250;-55
2021/04/13 13:20:47;;;;;;;2.60;0.90;;;9.30;97.40;;;;;;5017358;28;20314;-57
2021/04/13 13:23:16;;;;;;;2.23;0.73;;;9.30;97.10;;;;;;5019709;28;20683;-52
2021/04/13 13:25:43;;;;;;;0.73;0.50;;;9.20;94.10;;;;;;4996191;28;20352;-56
2021/04/13 13:28:17;;;;;;;3.17;0.83;;;9.20;95.90;;;;;;5015060;28;20204;-56
2021/04/13 13:30:44;;;;;;;4.80;1.13;;;9.20;96.90;;;;;;5006381;28;20533;-53
2021/04/13 13:33:11;;;;;;;5.03;0.90;;;9.40;97.40;;;;;;5016529;28;20208;-57
2021/04/13 13:35:37;;;;;;;5.17;1.33;;;9.30;97.40;;;;;;5017525;28;20196;-53
2021/04/13 13:38:04;;;;;;;1.73;0.70;;;9.20;98.40;;;;;;5021639;28;20215;-57
2021/04/13 13:40:33;;;;;;;3.57;1.10;;;9.50;98.30;;;;;;4992584;28;20301;-53
2021/04/13 13:43:04;;;;;;;4.30;1.07;;;9.50;98.80;;;;;;5017139;28;20607;-56